sensor_id;sensor_type;location;lat;lon;timestamp;P1;durP1;ratioP1;P2;durP2;ratioP2
44764;SDS011;30484;52.382;5.260;2022-11-11T00:00:13;21.17;;;8.93;;
44764;SDS011;30484;52.382;5.260;2022-11-11T00:02:44;26.33;;;9.43;;
44764;SDS011;30484;52.382;5.260;2022-11-11T00:05:16;20.95;;;9.85;;
44764;SDS011;30484;52.382;5.260;2022-11-11T00:07:45;28.20;;;10.43;;
44764;SDS011;30484;52.382;5.260;2022-11-11T00:10:14;21.75;;;10.15;;
44764;SDS011;30484;52.382;5.260;2022-11-11T00:12:43;24.23;;;11.18;;
44764;SDS011;30484;52.382;5.260;2022-11-11T00:15:11;27.63;;;11.25;;
44764;SDS011;30484;52.382;5.260;2022-11-11T00:17:40;28.23;;;11.60;;
44764;SDS011;30484;52.382;5.260;2022-11-11T00:20:28;28.33;;;12.55;;
44764;SDS011;30484;52.382;5.260;2022-11-11T00:23:19;30.33;;;12.20;;
44764;SDS011;30484;52.382;5.260;2022-11-11T00:26:07;27.90;;;12.70;;
44764;SDS011;30484;52.382;5.260;2022-11-11T00:28:57;33.90;;;13.32;;
44764;SDS011;30484;52.382;5.260;2022-11-11T00:31:26;30.98;;;14.30;;
44764;SDS011;30484;52.382;5.260;2022-11-11T00:33:55;30.48;;;13.38;;
44764;SDS011;30484;52.382;5.260;2022-11-11T00:36:25;31.90;;;15.15;;
44764;SDS011;30484;52.382;5.260;2022-11-11T00:38:53;32.00;;;15.43;;
44764;SDS011;30484;52.382;5.260;2022-11-11T00:41:23;43.00;;;17.10;;
44764;SDS011;30484;52.382;5.260;2022-11-11T00:43:53;40.13;;;17.25;;
44764;SDS011;30484;52.382;5.260;2022-11-11T00:46:22;40.78;;;18.88;;
44764;SDS011;30484;52.382;5.260;2022-11-11T00:49:08;40.00;;;19.50;;
44764;SDS011;30484;52.382;5.260;2022-11-11T00:51:55;36.67;;;18.85;;
44764;SDS011;30484;52.382;5.260;2022-11-11T00:54:24;43.13;;;20.05;;
44764;SDS011;30484;52.382;5.260;2022-11-11T00:56:53;41.22;;;21.25;;
44764;SDS011;30484;52.382;5.260;2022-11-11T00:59:22;46.88;;;21.63;;
44764;SDS011;30484;52.382;5.260;2022-11-11T01:01:51;45.22;;;21.85;;
44764;SDS011;30484;52.382;5.260;2022-11-11T01:04:20;41.65;;;21.50;;
44764;SDS011;30484;52.382;5.260;2022-11-11T01:06:50;43.95;;;22.40;;
44764;SDS011;30484;52.382;5.260;2022-11-11T01:09:20;53.38;;;22.88;;
44764;SDS011;30484;52.382;5.260;2022-11-11T01:11:49;44.17;;;23.25;;
44764;SDS011;30484;52.382;5.260;2022-11-11T01:14:19;47.33;;;23.08;;
44764;SDS011;30484;52.382;5.260;2022-11-11T01:16:47;47.83;;;24.75;;
44764;SDS011;30484;52.382;5.260;2022-11-11T01:19:16;52.40;;;25.40;;
44764;SDS011;30484;52.382;5.260;2022-11-11T01:21:45;50.38;;;25.10;;
44764;SDS011;30484;52.382;5.260;2022-11-11T01:24:14;46.00;;;26.50;;
44764;SDS011;30484;52.382;5.260;2022-11-11T01:26:45;44.53;;;26.88;;
44764;SDS011;30484;52.382;5.260;2022-11-11T01:29:16;47.90;;;26.98;;
44764;SDS011;30484;52.382;5.260;2022-11-11T01:31:46;49.17;;;27.48;;
44764;SDS011;30484;52.382;5.260;2022-11-11T01:34:14;58.33;;;27.50;;
44764;SDS011;30484;52.382;5.260;2022-11-11T01:36:44;48.67;;;27.65;;
44764;SDS011;30484;52.382;5.260;2022-11-11T01:39:13;52.97;;;28.58;;
44764;SDS011;30484;52.382;5.260;2022-11-11T01:41:42;47.20;;;27.38;;
44764;SDS011;30484;52.382;5.260;2022-11-11T01:44:19;51.65;;;27.90;;
44764;SDS011;30484;52.382;5.260;2022-11-11T01:47:13;57.22;;;28.42;;
44764;SDS011;30484;52.382;5.260;2022-11-11T01:49:46;58.97;;;28.80;;
44764;SDS011;30484;52.382;5.260;2022-11-11T01:52:20;53.20;;;28.43;;
44764;SDS011;30484;52.382;5.260;2022-11-11T01:57:30;59.40;;;28.65;;
44764;SDS011;30484;52.382;5.260;2022-11-11T02:00:10;52.58;;;28.77;;
44764;SDS011;30484;52.382;5.260;2022-11-11T02:02:47;56.13;;;28.80;;
44764;SDS011;30484;52.382;5.260;2022-11-11T02:05:21;53.35;;;29.95;;
44764;SDS011;30484;52.382;5.260;2022-11-11T02:08:09;56.25;;;29.23;;
44764;SDS011;30484;52.382;5.260;2022-11-11T02:10:42;54.25;;;30.13;;
44764;SDS011;30484;52.382;5.260;2022-11-11T02:13:14;57.20;;;30.05;;
44764;SDS011;30484;52.382;5.260;2022-11-11T02:16:02;67.90;;;29.13;;
44764;SDS011;30484;52.382;5.260;2022-11-11T02:18:31;58.42;;;29.35;;
44764;SDS011;30484;52.382;5.260;2022-11-11T02:21:00;59.40;;;30.13;;
44764;SDS011;30484;52.382;5.260;2022-11-11T02:23:30;54.95;;;30.30;;
44764;SDS011;30484;52.382;5.260;2022-11-11T02:26:06;57.15;;;31.00;;
44764;SDS011;30484;52.382;5.260;2022-11-11T02:28:37;58.72;;;30.33;;
44764;SDS011;30484;52.382;5.260;2022-11-11T02:31:07;58.03;;;32.10;;
44764;SDS011;30484;52.382;5.260;2022-11-11T02:33:36;55.42;;;30.08;;
44764;SDS011;30484;52.382;5.260;2022-11-11T02:36:05;61.40;;;31.40;;
44764;SDS011;30484;52.382;5.260;2022-11-11T02:38:41;64.57;;;31.10;;
44764;SDS011;30484;52.382;5.260;2022-11-11T02:41:12;59.50;;;30.88;;
44764;SDS011;30484;52.382;5.260;2022-11-11T02:43:57;60.75;;;32.60;;
44764;SDS011;30484;52.382;5.260;2022-11-11T02:46:26;63.42;;;30.08;;
44764;SDS011;30484;52.382;5.260;2022-11-11T02:48:55;64.75;;;32.28;;
44764;SDS011;30484;52.382;5.260;2022-11-11T02:51:24;61.70;;;31.25;;
44764;SDS011;30484;52.382;5.260;2022-11-11T02:53:52;60.55;;;31.08;;
44764;SDS011;30484;52.382;5.260;2022-11-11T02:56:25;69.13;;;31.83;;
44764;SDS011;30484;52.382;5.260;2022-11-11T02:59:12;56.63;;;30.45;;
44764;SDS011;30484;52.382;5.260;2022-11-11T03:01:40;65.50;;;32.42;;
44764;SDS011;30484;52.382;5.260;2022-11-11T03:04:09;59.28;;;30.75;;
44764;SDS011;30484;52.382;5.260;2022-11-11T03:06:37;57.92;;;30.65;;
44764;SDS011;30484;52.382;5.260;2022-11-11T03:09:07;63.67;;;31.10;;
44764;SDS011;30484;52.382;5.260;2022-11-11T03:11:36;59.60;;;30.90;;
44764;SDS011;30484;52.382;5.260;2022-11-11T03:14:06;55.17;;;30.15;;
44764;SDS011;30484;52.382;5.260;2022-11-11T03:16:37;64.88;;;31.73;;
44764;SDS011;30484;52.382;5.260;2022-11-11T03:19:23;60.50;;;30.92;;
44764;SDS011;30484;52.382;5.260;2022-11-11T03:21:52;57.17;;;30.38;;
44764;SDS011;30484;52.382;5.260;2022-11-11T03:24:41;56.83;;;32.03;;
44764;SDS011;30484;52.382;5.260;2022-11-11T03:27:28;58.03;;;31.48;;
44764;SDS011;30484;52.382;5.260;2022-11-11T03:29:56;58.38;;;30.90;;
44764;SDS011;30484;52.382;5.260;2022-11-11T03:32:25;61.33;;;34.00;;
44764;SDS011;30484;52.382;5.260;2022-11-11T03:34:54;59.38;;;31.67;;
44764;SDS011;30484;52.382;5.260;2022-11-11T03:37:22;67.00;;;31.50;;
44764;SDS011;30484;52.382;5.260;2022-11-11T03:40:16;63.70;;;31.65;;
44764;SDS011;30484;52.382;5.260;2022-11-11T03:42:46;63.20;;;32.28;;
44764;SDS011;30484;52.382;5.260;2022-11-11T03:45:15;57.85;;;31.48;;
44764;SDS011;30484;52.382;5.260;2022-11-11T03:47:44;57.97;;;31.70;;
44764;SDS011;30484;52.382;5.260;2022-11-11T03:50:12;60.17;;;32.63;;
44764;SDS011;30484;52.382;5.260;2022-11-11T03:52:41;59.15;;;33.17;;
44764;SDS011;30484;52.382;5.260;2022-11-11T03:55:10;61.45;;;31.50;;
44764;SDS011;30484;52.382;5.260;2022-11-11T03:57:39;62.13;;;32.63;;
44764;SDS011;30484;52.382;5.260;2022-11-11T04:00:10;55.92;;;30.88;;
44764;SDS011;30484;52.382;5.260;2022-11-11T04:02:41;61.80;;;32.42;;
44764;SDS011;30484;52.382;5.260;2022-11-11T04:05:27;58.25;;;32.00;;
44764;SDS011;30484;52.382;5.260;2022-11-11T04:08:14;59.60;;;32.45;;
44764;SDS011;30484;52.382;5.260;2022-11-11T04:11:04;62.85;;;32.78;;
44764;SDS011;30484;52.382;5.260;2022-11-11T04:13:36;58.35;;;32.25;;
44764;SDS011;30484;52.382;5.260;2022-11-11T04:16:24;56.25;;;30.70;;
44764;SDS011;30484;52.382;5.260;2022-11-11T04:18:53;61.70;;;31.83;;
44764;SDS011;30484;52.382;5.260;2022-11-11T04:21:39;66.32;;;32.38;;
44764;SDS011;30484;52.382;5.260;2022-11-11T04:24:10;71.40;;;31.75;;
44764;SDS011;30484;52.382;5.260;2022-11-11T04:26:58;57.70;;;32.67;;
44764;SDS011;30484;52.382;5.260;2022-11-11T04:29:29;68.03;;;32.70;;
44764;SDS011;30484;52.382;5.260;2022-11-11T04:31:59;60.65;;;32.83;;
44764;SDS011;30484;52.382;5.260;2022-11-11T04:34:49;61.25;;;30.45;;
44764;SDS011;30484;52.382;5.260;2022-11-11T04:37:19;62.80;;;32.35;;
44764;SDS011;30484;52.382;5.260;2022-11-11T04:39:50;60.42;;;32.63;;
44764;SDS011;30484;52.382;5.260;2022-11-11T04:42:36;62.80;;;33.15;;
44764;SDS011;30484;52.382;5.260;2022-11-11T04:45:06;58.40;;;32.38;;
44764;SDS011;30484;52.382;5.260;2022-11-11T04:47:58;59.10;;;32.10;;
44764;SDS011;30484;52.382;5.260;2022-11-11T04:50:30;61.67;;;31.77;;
44764;SDS011;30484;52.382;5.260;2022-11-11T04:53:02;58.08;;;31.75;;
44764;SDS011;30484;52.382;5.260;2022-11-11T04:55:32;61.88;;;31.75;;
44764;SDS011;30484;52.382;5.260;2022-11-11T04:58:19;58.78;;;31.30;;
44764;SDS011;30484;52.382;5.260;2022-11-11T05:00:49;60.38;;;32.28;;
44764;SDS011;30484;52.382;5.260;2022-11-11T05:03:20;56.05;;;31.00;;
44764;SDS011;30484;52.382;5.260;2022-11-11T05:05:50;55.88;;;30.42;;
44764;SDS011;30484;52.382;5.260;2022-11-11T05:08:38;61.42;;;31.48;;
44764;SDS011;30484;52.382;5.260;2022-11-11T05:11:26;53.53;;;30.27;;
44764;SDS011;30484;52.382;5.260;2022-11-11T05:13:56;60.30;;;31.50;;
44764;SDS011;30484;52.382;5.260;2022-11-11T05:16:45;56.50;;;31.33;;
44764;SDS011;30484;52.382;5.260;2022-11-11T05:19:36;53.78;;;30.95;;
44764;SDS011;30484;52.382;5.260;2022-11-11T05:22:23;64.63;;;32.92;;
44764;SDS011;30484;52.382;5.260;2022-11-11T05:24:55;59.92;;;31.35;;
44764;SDS011;30484;52.382;5.260;2022-11-11T05:27:42;57.90;;;32.10;;
44764;SDS011;30484;52.382;5.260;2022-11-11T05:30:11;56.10;;;31.58;;
44764;SDS011;30484;52.382;5.260;2022-11-11T05:32:44;52.78;;;30.92;;
44764;SDS011;30484;52.382;5.260;2022-11-11T05:35:14;52.60;;;31.73;;
44764;SDS011;30484;52.382;5.260;2022-11-11T05:37:44;57.80;;;31.17;;
44764;SDS011;30484;52.382;5.260;2022-11-11T05:40:34;60.35;;;30.35;;
44764;SDS011;30484;52.382;5.260;2022-11-11T05:43:03;57.58;;;31.80;;
44764;SDS011;30484;52.382;5.260;2022-11-11T05:45:31;52.83;;;32.33;;
44764;SDS011;30484;52.382;5.260;2022-11-11T05:50:58;57.58;;;32.63;;
44764;SDS011;30484;52.382;5.260;2022-11-11T05:53:26;57.38;;;32.47;;
44764;SDS011;30484;52.382;5.260;2022-11-11T05:55:55;58.33;;;31.85;;
44764;SDS011;30484;52.382;5.260;2022-11-11T05:58:24;57.63;;;33.65;;
44764;SDS011;30484;52.382;5.260;2022-11-11T06:00:53;59.42;;;32.30;;
44764;SDS011;30484;52.382;5.260;2022-11-11T06:03:22;57.50;;;31.55;;
44764;SDS011;30484;52.382;5.260;2022-11-11T06:05:51;53.47;;;32.88;;
44764;SDS011;30484;52.382;5.260;2022-11-11T06:08:22;50.55;;;31.42;;
44764;SDS011;30484;52.382;5.260;2022-11-11T06:10:51;55.90;;;33.15;;
44764;SDS011;30484;52.382;5.260;2022-11-11T06:13:20;51.60;;;30.65;;
44764;SDS011;30484;52.382;5.260;2022-11-11T06:15:49;55.85;;;32.35;;
44764;SDS011;30484;52.382;5.260;2022-11-11T06:18:18;52.20;;;31.35;;
44764;SDS011;30484;52.382;5.260;2022-11-11T06:23:24;54.50;;;31.02;;
44764;SDS011;30484;52.382;5.260;2022-11-11T06:25:55;55.35;;;31.60;;
44764;SDS011;30484;52.382;5.260;2022-11-11T06:28:40;57.58;;;31.63;;
44764;SDS011;30484;52.382;5.260;2022-11-11T06:31:11;55.90;;;31.35;;
44764;SDS011;30484;52.382;5.260;2022-11-11T06:33:43;61.25;;;32.20;;
44764;SDS011;30484;52.382;5.260;2022-11-11T06:36:12;56.85;;;30.98;;
44764;SDS011;30484;52.382;5.260;2022-11-11T06:38:45;60.05;;;31.60;;
44764;SDS011;30484;52.382;5.260;2022-11-11T06:41:13;52.38;;;31.33;;
44764;SDS011;30484;52.382;5.260;2022-11-11T06:43:42;59.03;;;31.65;;
44764;SDS011;30484;52.382;5.260;2022-11-11T06:46:12;51.63;;;31.02;;
44764;SDS011;30484;52.382;5.260;2022-11-11T06:48:48;52.35;;;32.45;;
44764;SDS011;30484;52.382;5.260;2022-11-11T06:51:18;54.28;;;32.20;;
44764;SDS011;30484;52.382;5.260;2022-11-11T06:53:49;54.67;;;32.45;;
44764;SDS011;30484;52.382;5.260;2022-11-11T06:56:18;53.75;;;32.13;;
44764;SDS011;30484;52.382;5.260;2022-11-11T06:58:46;55.15;;;31.42;;
44764;SDS011;30484;52.382;5.260;2022-11-11T07:01:15;65.82;;;33.20;;
44764;SDS011;30484;52.382;5.260;2022-11-11T07:03:44;51.53;;;31.23;;
44764;SDS011;30484;52.382;5.260;2022-11-11T07:06:13;60.10;;;31.17;;
44764;SDS011;30484;52.382;5.260;2022-11-11T07:08:42;58.88;;;32.00;;
44764;SDS011;30484;52.382;5.260;2022-11-11T07:11:12;61.20;;;32.33;;
44764;SDS011;30484;52.382;5.260;2022-11-11T07:13:44;57.58;;;32.63;;
44764;SDS011;30484;52.382;5.260;2022-11-11T07:16:13;55.00;;;31.55;;
44764;SDS011;30484;52.382;5.260;2022-11-11T07:18:43;59.95;;;32.00;;
44764;SDS011;30484;52.382;5.260;2022-11-11T07:21:12;58.65;;;30.98;;
44764;SDS011;30484;52.382;5.260;2022-11-11T07:23:41;63.95;;;33.33;;
44764;SDS011;30484;52.382;5.260;2022-11-11T07:26:11;58.97;;;32.10;;
44764;SDS011;30484;52.382;5.260;2022-11-11T07:28:41;58.05;;;33.40;;
44764;SDS011;30484;52.382;5.260;2022-11-11T07:31:10;56.15;;;31.67;;
44764;SDS011;30484;52.382;5.260;2022-11-11T07:33:39;54.08;;;31.88;;
44764;SDS011;30484;52.382;5.260;2022-11-11T07:36:08;53.83;;;31.80;;
44764;SDS011;30484;52.382;5.260;2022-11-11T07:38:36;56.20;;;31.50;;
44764;SDS011;30484;52.382;5.260;2022-11-11T07:41:05;58.33;;;32.30;;
44764;SDS011;30484;52.382;5.260;2022-11-11T07:43:37;56.42;;;31.15;;
44764;SDS011;30484;52.382;5.260;2022-11-11T07:46:06;55.75;;;31.65;;
44764;SDS011;30484;52.382;5.260;2022-11-11T07:48:34;50.25;;;30.35;;
44764;SDS011;30484;52.382;5.260;2022-11-11T07:51:03;56.25;;;30.50;;
44764;SDS011;30484;52.382;5.260;2022-11-11T07:53:32;53.65;;;29.95;;
44764;SDS011;30484;52.382;5.260;2022-11-11T07:56:01;51.30;;;30.33;;
44764;SDS011;30484;52.382;5.260;2022-11-11T07:58:30;56.88;;;31.83;;
44764;SDS011;30484;52.382;5.260;2022-11-11T08:01:00;51.60;;;30.00;;
44764;SDS011;30484;52.382;5.260;2022-11-11T08:03:34;49.78;;;29.13;;
44764;SDS011;30484;52.382;5.260;2022-11-11T08:06:15;45.97;;;28.77;;
44764;SDS011;30484;52.382;5.260;2022-11-11T08:08:45;46.42;;;27.65;;
44764;SDS011;30484;52.382;5.260;2022-11-11T08:11:16;55.17;;;30.08;;
44764;SDS011;30484;52.382;5.260;2022-11-11T08:14:05;47.70;;;28.67;;
44764;SDS011;30484;52.382;5.260;2022-11-11T08:16:34;56.90;;;29.10;;
44764;SDS011;30484;52.382;5.260;2022-11-11T08:19:03;47.33;;;28.05;;
44764;SDS011;30484;52.382;5.260;2022-11-11T08:21:32;43.67;;;27.63;;
44764;SDS011;30484;52.382;5.260;2022-11-11T08:24:01;47.85;;;27.63;;
44764;SDS011;30484;52.382;5.260;2022-11-11T08:26:50;47.78;;;25.92;;
44764;SDS011;30484;52.382;5.260;2022-11-11T08:29:19;46.00;;;25.10;;
44764;SDS011;30484;52.382;5.260;2022-11-11T08:31:51;41.95;;;25.10;;
44764;SDS011;30484;52.382;5.260;2022-11-11T08:34:21;39.15;;;23.35;;
44764;SDS011;30484;52.382;5.260;2022-11-11T08:36:49;45.42;;;23.48;;
44764;SDS011;30484;52.382;5.260;2022-11-11T08:39:19;40.78;;;24.10;;
44764;SDS011;30484;52.382;5.260;2022-11-11T08:41:50;40.75;;;23.98;;
44764;SDS011;30484;52.382;5.260;2022-11-11T08:44:20;41.70;;;23.83;;
44764;SDS011;30484;52.382;5.260;2022-11-11T08:46:49;39.20;;;22.48;;
44764;SDS011;30484;52.382;5.260;2022-11-11T08:49:22;43.70;;;22.60;;
44764;SDS011;30484;52.382;5.260;2022-11-11T08:51:50;35.53;;;20.77;;
44764;SDS011;30484;52.382;5.260;2022-11-11T08:54:19;31.73;;;20.35;;
44764;SDS011;30484;52.382;5.260;2022-11-11T08:56:48;35.45;;;21.55;;
44764;SDS011;30484;52.382;5.260;2022-11-11T08:59:18;34.13;;;19.00;;
44764;SDS011;30484;52.382;5.260;2022-11-11T09:01:46;31.67;;;19.63;;
44764;SDS011;30484;52.382;5.260;2022-11-11T09:04:15;37.15;;;19.90;;
44764;SDS011;30484;52.382;5.260;2022-11-11T09:07:06;33.85;;;20.27;;
44764;SDS011;30484;52.382;5.260;2022-11-11T09:09:36;31.88;;;18.48;;
44764;SDS011;30484;52.382;5.260;2022-11-11T09:12:05;35.20;;;18.48;;
44764;SDS011;30484;52.382;5.260;2022-11-11T09:14:34;32.08;;;18.33;;
44764;SDS011;30484;52.382;5.260;2022-11-11T09:17:03;30.88;;;18.70;;
44764;SDS011;30484;52.382;5.260;2022-11-11T09:19:36;28.67;;;17.33;;
44764;SDS011;30484;52.382;5.260;2022-11-11T09:22:07;30.05;;;18.45;;
44764;SDS011;30484;52.382;5.260;2022-11-11T09:24:36;27.27;;;17.92;;
44764;SDS011;30484;52.382;5.260;2022-11-11T09:27:05;27.52;;;17.15;;
44764;SDS011;30484;52.382;5.260;2022-11-11T09:29:33;28.70;;;17.50;;
44764;SDS011;30484;52.382;5.260;2022-11-11T09:32:03;29.55;;;18.00;;
44764;SDS011;30484;52.382;5.260;2022-11-11T09:34:32;32.88;;;19.08;;
44764;SDS011;30484;52.382;5.260;2022-11-11T09:37:01;33.33;;;19.30;;
44764;SDS011;30484;52.382;5.260;2022-11-11T09:39:32;27.67;;;18.00;;
44764;SDS011;30484;52.382;5.260;2022-11-11T09:42:02;33.28;;;18.40;;
44764;SDS011;30484;52.382;5.260;2022-11-11T09:44:54;31.60;;;18.02;;
44764;SDS011;30484;52.382;5.260;2022-11-11T09:47:44;36.80;;;18.73;;
44764;SDS011;30484;52.382;5.260;2022-11-11T09:50:30;34.50;;;18.40;;
44764;SDS011;30484;52.382;5.260;2022-11-11T09:53:09;28.95;;;18.83;;
44764;SDS011;30484;52.382;5.260;2022-11-11T09:55:48;32.67;;;18.52;;
44764;SDS011;30484;52.382;5.260;2022-11-11T09:58:25;36.97;;;20.73;;
44764;SDS011;30484;52.382;5.260;2022-11-11T10:01:00;36.35;;;20.90;;
44764;SDS011;30484;52.382;5.260;2022-11-11T10:03:37;33.90;;;21.13;;
44764;SDS011;30484;52.382;5.260;2022-11-11T10:06:13;36.67;;;20.55;;
44764;SDS011;30484;52.382;5.260;2022-11-11T10:08:51;32.38;;;20.15;;
44764;SDS011;30484;52.382;5.260;2022-11-11T10:11:33;37.30;;;21.05;;
44764;SDS011;30484;52.382;5.260;2022-11-11T10:14:14;35.08;;;20.48;;
44764;SDS011;30484;52.382;5.260;2022-11-11T10:16:55;37.30;;;21.52;;
44764;SDS011;30484;52.382;5.260;2022-11-11T10:19:33;36.53;;;21.90;;
44764;SDS011;30484;52.382;5.260;2022-11-11T10:22:18;35.67;;;20.80;;
44764;SDS011;30484;52.382;5.260;2022-11-11T10:24:51;34.88;;;22.25;;
44764;SDS011;30484;52.382;5.260;2022-11-11T10:27:34;41.25;;;22.42;;
44764;SDS011;30484;52.382;5.260;2022-11-11T10:30:07;40.33;;;23.05;;
44764;SDS011;30484;52.382;5.260;2022-11-11T10:32:56;37.95;;;23.38;;
44764;SDS011;30484;52.382;5.260;2022-11-11T10:35:30;38.28;;;22.77;;
44764;SDS011;30484;52.382;5.260;2022-11-11T10:38:12;44.10;;;24.40;;
44764;SDS011;30484;52.382;5.260;2022-11-11T10:40:59;43.05;;;22.58;;
44764;SDS011;30484;52.382;5.260;2022-11-11T10:43:55;43.58;;;24.65;;
44764;SDS011;30484;52.382;5.260;2022-11-11T10:46:25;45.75;;;24.35;;
44764;SDS011;30484;52.382;5.260;2022-11-11T10:49:06;41.78;;;23.77;;
44764;SDS011;30484;52.382;5.260;2022-11-11T10:51:41;39.25;;;23.70;;
44764;SDS011;30484;52.382;5.260;2022-11-11T10:54:14;46.58;;;24.77;;
44764;SDS011;30484;52.382;5.260;2022-11-11T10:56:48;36.95;;;23.55;;
44764;SDS011;30484;52.382;5.260;2022-11-11T10:59:25;40.03;;;24.73;;
44764;SDS011;30484;52.382;5.260;2022-11-11T11:02:05;44.55;;;24.45;;
44764;SDS011;30484;52.382;5.260;2022-11-11T11:04:43;43.22;;;24.77;;
44764;SDS011;30484;52.382;5.260;2022-11-11T11:07:17;42.60;;;24.27;;
44764;SDS011;30484;52.382;5.260;2022-11-11T11:09:52;37.80;;;23.60;;
44764;SDS011;30484;52.382;5.260;2022-11-11T11:12:26;41.20;;;24.58;;
44764;SDS011;30484;52.382;5.260;2022-11-11T11:15:07;42.40;;;23.80;;
44764;SDS011;30484;52.382;5.260;2022-11-11T11:17:49;39.65;;;23.88;;
44764;SDS011;30484;52.382;5.260;2022-11-11T11:20:22;46.95;;;25.48;;
44764;SDS011;30484;52.382;5.260;2022-11-11T11:22:52;38.53;;;23.65;;
44764;SDS011;30484;52.382;5.260;2022-11-11T11:25:28;33.92;;;22.30;;
44764;SDS011;30484;52.382;5.260;2022-11-11T11:28:04;38.05;;;22.60;;
44764;SDS011;30484;52.382;5.260;2022-11-11T11:30:38;36.80;;;22.35;;
44764;SDS011;30484;52.382;5.260;2022-11-11T11:33:07;36.67;;;21.90;;
44764;SDS011;30484;52.382;5.260;2022-11-11T11:35:38;36.67;;;22.65;;
44764;SDS011;30484;52.382;5.260;2022-11-11T11:38:11;37.72;;;21.42;;
44764;SDS011;30484;52.382;5.260;2022-11-11T11:40:46;38.65;;;21.10;;
44764;SDS011;30484;52.382;5.260;2022-11-11T11:43:25;35.53;;;22.48;;
44764;SDS011;30484;52.382;5.260;2022-11-11T11:46:13;35.22;;;21.67;;
44764;SDS011;30484;52.382;5.260;2022-11-11T11:48:57;42.17;;;23.25;;
44764;SDS011;30484;52.382;5.260;2022-11-11T11:51:42;35.33;;;22.30;;
44764;SDS011;30484;52.382;5.260;2022-11-11T11:54:24;36.78;;;21.77;;
44764;SDS011;30484;52.382;5.260;2022-11-11T11:57:25;35.90;;;22.67;;
44764;SDS011;30484;52.382;5.260;2022-11-11T12:00:13;32.88;;;20.65;;
44764;SDS011;30484;52.382;5.260;2022-11-11T12:03:07;31.80;;;19.80;;
44764;SDS011;30484;52.382;5.260;2022-11-11T12:06:06;37.05;;;21.27;;
44764;SDS011;30484;52.382;5.260;2022-11-11T12:08:49;30.63;;;20.08;;
44764;SDS011;30484;52.382;5.260;2022-11-11T12:11:32;33.47;;;21.38;;
44764;SDS011;30484;52.382;5.260;2022-11-11T12:14:30;35.05;;;20.33;;
44764;SDS011;30484;52.382;5.260;2022-11-11T12:17:35;39.47;;;23.10;;
44764;SDS011;30484;52.382;5.260;2022-11-11T12:20:22;34.78;;;21.55;;
44764;SDS011;30484;52.382;5.260;2022-11-11T12:23:13;31.30;;;21.50;;
44764;SDS011;30484;52.382;5.260;2022-11-11T12:26:02;37.20;;;22.33;;
44764;SDS011;30484;52.382;5.260;2022-11-11T12:29:03;36.47;;;22.25;;
44764;SDS011;30484;52.382;5.260;2022-11-11T12:31:54;34.55;;;21.45;;
44764;SDS011;30484;52.382;5.260;2022-11-11T12:37:42;38.85;;;23.40;;
44764;SDS011;30484;52.382;5.260;2022-11-11T12:40:23;44.20;;;23.70;;
44764;SDS011;30484;52.382;5.260;2022-11-11T12:43:06;41.35;;;24.60;;
44764;SDS011;30484;52.382;5.260;2022-11-11T12:45:48;39.83;;;25.00;;
44764;SDS011;30484;52.382;5.260;2022-11-11T12:48:27;36.30;;;24.08;;
44764;SDS011;30484;52.382;5.260;2022-11-11T12:51:17;38.05;;;24.85;;
44764;SDS011;30484;52.382;5.260;2022-11-11T12:54:01;39.10;;;25.08;;
44764;SDS011;30484;52.382;5.260;2022-11-11T12:56:50;49.53;;;25.42;;
44764;SDS011;30484;52.382;5.260;2022-11-11T12:59:30;41.60;;;25.33;;
44764;SDS011;30484;52.382;5.260;2022-11-11T13:02:15;38.58;;;24.27;;
44764;SDS011;30484;52.382;5.260;2022-11-11T13:05:06;38.67;;;24.80;;
44764;SDS011;30484;52.382;5.260;2022-11-11T13:07:46;39.67;;;24.38;;
44764;SDS011;30484;52.382;5.260;2022-11-11T13:10:47;36.72;;;23.75;;
44764;SDS011;30484;52.382;5.260;2022-11-11T13:13:30;36.83;;;24.63;;
44764;SDS011;30484;52.382;5.260;2022-11-11T13:16:14;36.15;;;24.08;;
44764;SDS011;30484;52.382;5.260;2022-11-11T13:18:47;37.17;;;23.25;;
44764;SDS011;30484;52.382;5.260;2022-11-11T13:21:25;33.35;;;22.73;;
44764;SDS011;30484;52.382;5.260;2022-11-11T13:24:11;35.33;;;22.08;;
44764;SDS011;30484;52.382;5.260;2022-11-11T13:26:52;37.38;;;21.42;;
44764;SDS011;30484;52.382;5.260;2022-11-11T13:29:38;34.45;;;22.02;;
44764;SDS011;30484;52.382;5.260;2022-11-11T13:32:28;33.55;;;20.83;;
44764;SDS011;30484;52.382;5.260;2022-11-11T13:35:08;34.22;;;19.60;;
44764;SDS011;30484;52.382;5.260;2022-11-11T13:37:46;32.88;;;19.80;;
44764;SDS011;30484;52.382;5.260;2022-11-11T13:40:25;32.97;;;20.50;;
44764;SDS011;30484;52.382;5.260;2022-11-11T13:43:15;30.35;;;18.23;;
44764;SDS011;30484;52.382;5.260;2022-11-11T13:45:49;35.13;;;18.90;;
44764;SDS011;30484;52.382;5.260;2022-11-11T13:48:23;34.80;;;17.38;;
44764;SDS011;30484;52.382;5.260;2022-11-11T13:51:11;31.77;;;18.15;;
44764;SDS011;30484;52.382;5.260;2022-11-11T13:53:51;28.50;;;18.80;;
44764;SDS011;30484;52.382;5.260;2022-11-11T13:56:21;28.85;;;18.08;;
44764;SDS011;30484;52.382;5.260;2022-11-11T13:58:56;35.65;;;19.33;;
44764;SDS011;30484;52.382;5.260;2022-11-11T14:01:31;28.48;;;18.00;;
44764;SDS011;30484;52.382;5.260;2022-11-11T14:04:08;28.65;;;17.15;;
44764;SDS011;30484;52.382;5.260;2022-11-11T14:06:49;28.00;;;16.60;;
44764;SDS011;30484;52.382;5.260;2022-11-11T14:12:33;28.92;;;15.57;;
44764;SDS011;30484;52.382;5.260;2022-11-11T14:18:33;27.67;;;15.55;;
44764;SDS011;30484;52.382;5.260;2022-11-11T14:21:08;25.65;;;15.80;;
44764;SDS011;30484;52.382;5.260;2022-11-11T14:23:39;24.45;;;15.35;;
44764;SDS011;30484;52.382;5.260;2022-11-11T14:26:23;29.63;;;15.98;;
44764;SDS011;30484;52.382;5.260;2022-11-11T14:28:56;30.80;;;15.30;;
44764;SDS011;30484;52.382;5.260;2022-11-11T14:31:44;34.13;;;18.65;;
44764;SDS011;30484;52.382;5.260;2022-11-11T14:35:13;29.02;;;15.80;;
44764;SDS011;30484;52.382;5.260;2022-11-11T14:37:54;26.38;;;15.55;;
44764;SDS011;30484;52.382;5.260;2022-11-11T14:40:49;28.85;;;15.60;;
44764;SDS011;30484;52.382;5.260;2022-11-11T14:43:37;26.63;;;15.18;;
44764;SDS011;30484;52.382;5.260;2022-11-11T14:46:07;26.75;;;14.20;;
44764;SDS011;30484;52.382;5.260;2022-11-11T14:48:56;25.42;;;14.25;;
44764;SDS011;30484;52.382;5.260;2022-11-11T14:51:59;32.25;;;14.52;;
44764;SDS011;30484;52.382;5.260;2022-11-11T14:54:33;27.33;;;13.90;;
44764;SDS011;30484;52.382;5.260;2022-11-11T14:57:21;28.63;;;13.82;;
44764;SDS011;30484;52.382;5.260;2022-11-11T14:59:55;27.00;;;14.15;;
44764;SDS011;30484;52.382;5.260;2022-11-11T15:02:26;26.27;;;13.25;;
44764;SDS011;30484;52.382;5.260;2022-11-11T15:05:04;25.98;;;14.07;;
44764;SDS011;30484;52.382;5.260;2022-11-11T15:07:44;20.17;;;12.93;;
44764;SDS011;30484;52.382;5.260;2022-11-11T15:10:35;25.20;;;13.57;;
44764;SDS011;30484;52.382;5.260;2022-11-11T15:16:36;23.90;;;13.77;;
44764;SDS011;30484;52.382;5.260;2022-11-11T15:19:30;21.95;;;12.75;;
44764;SDS011;30484;52.382;5.260;2022-11-11T15:22:25;26.55;;;13.20;;
44764;SDS011;30484;52.382;5.260;2022-11-11T15:25:20;24.17;;;12.68;;
44764;SDS011;30484;52.382;5.260;2022-11-11T15:28:02;30.05;;;12.43;;
44764;SDS011;30484;52.382;5.260;2022-11-11T15:30:44;22.92;;;12.20;;
44764;SDS011;30484;52.382;5.260;2022-11-11T15:33:30;22.48;;;11.52;;